< < Back
Terminal Aerodrome Forecast


Current Version              Previous Versions:   1  2  3  4  5  6  7  8  9  

Terminal Aerodrome Forecast

261
FTUS44 KMRX 260527
TAFCHA
TAF
KCHA 260527Z 2606/2706 18003KT P6SM SCT100
     FM261500 19009KT P6SM SCT050 BKN100
     FM262000 23008KT P6SM VCTS BKN050CB
      TEMPO 2621/2624 3SM -TSRA OVC040CB
     FM270200 36007KT P6SM OVC025=

Latest METAR

323
SAUS80 KWBC 261700 RRA
MTRCHA
METAR KCHA 261653Z VRB05KT 10SM SCT045 SCT080 BKN160 BKN250 32/19 A3005
RMK AO2 LTG DSNT N SLP168 TCU DSNT W AND N SHRA DSNT W-N
T03170189


USA.gov is the U.S. government's official web portal to all federal, state and local government web resources and services.